createdAt,value
2019-02-11T00:01:18.610Z,85.40
2019-02-11T00:03:48.119Z,85.60
2019-02-11T00:06:17.646Z,85.70
2019-02-11T00:08:47.231Z,85.40
2019-02-11T00:11:16.765Z,84.80
2019-02-11T00:13:46.527Z,84.60
2019-02-11T00:16:16.012Z,84.80
2019-02-11T00:18:45.667Z,84.90
2019-02-11T00:21:15.143Z,85.30
2019-02-11T00:23:44.738Z,84.80
2019-02-11T00:26:14.279Z,84.90
2019-02-11T00:28:43.798Z,84.90
2019-02-11T00:31:13.418Z,84.90
2019-02-11T00:33:43.091Z,85.40
2019-02-11T00:36:12.771Z,85.40
2019-02-11T00:38:43.014Z,85.20
2019-02-11T00:41:13.885Z,85.30
2019-02-11T00:43:43.404Z,85.80
2019-02-11T00:46:13.051Z,86.00
2019-02-11T00:48:42.533Z,85.90
2019-02-11T00:51:12.500Z,86.40
2019-02-11T00:53:42.006Z,86.20
2019-02-11T00:56:11.654Z,86.60
2019-02-11T00:58:42.171Z,86.70
2019-02-11T01:01:11.851Z,86.70
2019-02-11T01:03:41.322Z,87.00
2019-02-11T01:06:10.888Z,87.60
2019-02-11T01:08:41.360Z,86.90
2019-02-11T01:11:10.866Z,86.90
2019-02-11T01:13:40.434Z,87.10
2019-02-11T01:16:09.979Z,87.00
2019-02-11T01:18:39.590Z,87.00
2019-02-11T01:21:09.125Z,86.70
2019-02-11T01:23:38.734Z,86.60
2019-02-11T01:26:08.249Z,87.30
2019-02-11T01:28:37.750Z,86.80
2019-02-11T01:31:08.327Z,87.00
2019-02-11T01:33:37.892Z,87.30
2019-02-11T01:36:07.644Z,87.40
2019-02-11T01:38:37.150Z,87.40
2019-02-11T01:41:06.847Z,87.70
2019-02-11T01:43:36.443Z,87.40
2019-02-11T01:46:06.085Z,87.10
2019-02-11T01:48:35.633Z,87.10
2019-02-11T01:51:05.285Z,87.50
2019-02-11T01:53:35.812Z,87.80
2019-02-11T01:56:06.028Z,89.20
2019-02-11T01:58:35.712Z,89.50
2019-02-11T02:01:11.269Z,89.90
2019-02-11T02:03:40.832Z,90.00
2019-02-11T02:06:10.350Z,89.70
2019-02-11T02:08:40.032Z,88.90
2019-02-11T02:11:09.523Z,88.90
2019-02-11T02:13:44.718Z,88.40
2019-02-11T02:16:10.363Z,88.00
2019-02-11T02:18:40.972Z,88.00
2019-02-11T02:21:10.445Z,87.60
2019-02-11T02:23:40.052Z,87.30
2019-02-11T02:26:09.571Z,87.10
2019-02-11T02:28:39.783Z,87.00
2019-02-11T02:31:09.422Z,87.10
2019-02-11T02:33:39.061Z,87.10
2019-02-11T02:36:08.691Z,87.30
2019-02-11T02:38:38.542Z,87.20
2019-02-11T02:41:08.169Z,87.40
2019-02-11T02:43:37.702Z,87.30
2019-02-11T02:46:07.390Z,87.30
2019-02-11T02:48:36.890Z,87.70
2019-02-11T02:51:06.596Z,88.00
2019-02-11T02:53:36.138Z,88.50
2019-02-11T02:56:05.875Z,88.80
2019-02-11T02:58:36.445Z,89.60
2019-02-11T03:01:06.078Z,90.00
2019-02-11T03:03:35.562Z,90.30
2019-02-11T03:22:00.302Z,91.40
2019-02-11T03:29:27.115Z,91.80
2019-02-11T03:31:59.856Z,91.70
2019-02-11T03:34:27.944Z,91.80
2019-02-11T03:36:57.648Z,92.00
2019-02-11T03:39:27.246Z,92.10
2019-02-11T03:41:56.863Z,92.10
2019-02-11T03:44:26.596Z,92.10
2019-02-11T03:46:56.255Z,92.00
2019-02-11T03:49:25.887Z,91.70
2019-02-11T03:51:55.453Z,91.40
2019-02-11T03:54:25.004Z,91.00
2019-02-11T03:56:54.911Z,90.80
2019-02-11T03:59:24.586Z,90.40
2019-02-11T04:01:54.259Z,90.20
2019-02-11T04:04:23.879Z,89.70
2019-02-11T04:06:53.537Z,89.30
2019-02-11T04:09:23.134Z,89.30
2019-02-11T04:11:52.712Z,89.40
2019-02-11T04:14:24.912Z,89.40
2019-02-11T04:16:53.612Z,89.70
2019-02-11T04:19:23.212Z,89.70
2019-02-11T04:22:06.645Z,89.30
2019-02-11T04:24:36.250Z,89.40
2019-02-11T04:27:06.136Z,88.40
2019-02-11T04:29:35.749Z,88.80
2019-02-11T04:32:05.351Z,89.00
2019-02-11T04:34:35.158Z,88.20
2019-02-11T04:37:04.829Z,88.20
2019-02-11T04:39:34.647Z,88.10
2019-02-11T04:42:04.276Z,88.10
2019-02-11T04:44:34.339Z,87.90
2019-02-11T04:47:03.958Z,88.20
2019-02-11T04:49:33.475Z,87.80
2019-02-11T04:52:03.479Z,88.00
2019-02-11T04:54:33.053Z,87.90
2019-02-11T04:57:02.642Z,88.00
2019-02-11T04:59:32.152Z,88.30
2019-02-11T05:02:01.636Z,88.50
2019-02-11T05:04:31.317Z,88.80
2019-02-11T05:07:00.871Z,88.60
2019-02-11T05:09:30.612Z,88.60
2019-02-11T05:12:00.156Z,88.60
2019-02-11T05:14:30.035Z,88.60
2019-02-11T05:16:59.587Z,88.50
2019-02-11T05:19:29.203Z,88.60
2019-02-11T05:21:58.698Z,88.20
2019-02-11T05:24:28.335Z,88.10
2019-02-11T05:26:57.840Z,88.00
2019-02-11T05:29:27.507Z,88.50
2019-02-11T05:31:56.983Z,89.00
2019-02-11T05:34:26.679Z,89.50
2019-02-11T05:36:56.267Z,90.00
2019-02-11T05:39:25.876Z,90.30
2019-02-11T05:41:55.368Z,90.80
2019-02-11T05:44:24.927Z,91.10
2019-02-11T05:46:54.495Z,91.60
2019-02-11T05:49:24.053Z,91.80
2019-02-11T05:51:53.671Z,92.10
2019-02-11T05:54:23.483Z,92.60
2019-02-11T05:56:53.172Z,93.00
2019-02-11T05:59:23.038Z,93.20
2019-02-11T06:01:52.711Z,93.40
2019-02-11T06:04:22.219Z,93.50
2019-02-11T06:06:51.839Z,93.80
2019-02-11T06:09:23.127Z,93.90
2019-02-11T06:11:52.964Z,94.10
2019-02-11T06:14:22.655Z,94.30
2019-02-11T06:16:52.239Z,94.60
2019-02-11T06:19:21.747Z,94.80
2019-02-11T06:21:51.384Z,94.80
2019-02-11T06:24:21.491Z,95.00
2019-02-11T06:26:51.042Z,95.10
2019-02-11T06:29:20.650Z,95.20
2019-02-11T06:31:50.402Z,95.30
2019-02-11T06:34:20.118Z,95.40
2019-02-11T06:36:50.823Z,95.30
2019-02-11T06:39:20.463Z,95.50
2019-02-11T06:41:50.067Z,95.40
2019-02-11T06:44:19.719Z,95.60
2019-02-11T06:46:49.296Z,95.60
2019-02-11T06:49:19.403Z,95.50
2019-02-11T06:51:49.904Z,95.60
2019-02-11T06:54:20.539Z,95.70
2019-02-11T06:56:50.453Z,95.60
2019-02-11T06:59:20.089Z,95.60
2019-02-11T07:01:49.648Z,95.90
2019-02-11T07:04:19.299Z,95.60
2019-02-11T07:06:48.926Z,95.80
2019-02-11T07:09:19.675Z,95.80
2019-02-11T07:11:49.241Z,95.80
2019-02-11T07:14:19.916Z,95.70
2019-02-11T07:16:49.494Z,95.80
2019-02-11T07:19:19.139Z,95.70
2019-02-11T07:21:48.719Z,95.70
2019-02-11T07:24:18.350Z,95.90
2019-02-11T07:26:48.039Z,95.70
2019-02-11T07:29:17.900Z,96.00
2019-02-11T07:31:47.701Z,96.10
2019-02-11T07:34:17.266Z,96.30
2019-02-11T07:36:47.298Z,96.30
2019-02-11T07:39:16.941Z,96.40
2019-02-11T07:42:04.753Z,96.50
2019-02-11T07:44:39.098Z,96.30
2019-02-11T07:47:08.730Z,96.20
2019-02-11T07:49:38.621Z,96.30
2019-02-11T07:52:08.267Z,96.20
2019-02-11T07:54:37.764Z,96.20
2019-02-11T07:57:07.428Z,95.90
2019-02-11T07:59:36.941Z,96.20
2019-02-11T08:02:06.557Z,96.20
2019-02-11T08:04:36.147Z,96.30
2019-02-11T08:07:05.991Z,96.20
2019-02-11T08:09:36.720Z,96.00
2019-02-11T08:12:06.487Z,96.00
2019-02-11T08:14:36.011Z,95.80
2019-02-11T08:17:05.678Z,95.70
2019-02-11T08:19:35.281Z,95.60
2019-02-11T08:22:05.322Z,95.80
2019-02-11T08:24:34.823Z,95.60
2019-02-11T08:27:04.344Z,95.70
2019-02-11T08:29:34.995Z,95.90
2019-02-11T08:32:04.671Z,96.00
2019-02-11T08:34:34.339Z,96.10
2019-02-11T08:37:04.523Z,95.90
2019-02-11T08:39:34.090Z,96.00
2019-02-11T08:42:03.917Z,96.30
2019-02-11T08:44:33.755Z,96.40
2019-02-11T08:47:03.444Z,96.40
2019-02-11T08:49:33.069Z,96.40
2019-02-11T08:52:02.673Z,96.80
2019-02-11T08:54:32.289Z,96.60
2019-02-11T08:57:01.799Z,96.80
2019-02-11T08:59:33.154Z,97.00
2019-02-11T09:02:02.797Z,96.80
2019-02-11T09:04:32.612Z,97.10
2019-02-11T09:07:02.323Z,97.20
2019-02-11T09:09:31.976Z,97.10
2019-02-11T09:12:02.619Z,97.40
2019-02-11T09:14:32.525Z,97.30
2019-02-11T09:17:09.802Z,97.40
2019-02-11T09:19:33.503Z,97.50
2019-02-11T09:22:07.699Z,97.20
2019-02-11T09:24:34.974Z,97.70
2019-02-11T09:27:04.918Z,97.20
2019-02-11T09:29:34.434Z,97.00
2019-02-11T09:32:04.548Z,97.10
2019-02-11T09:34:34.056Z,97.10
2019-02-11T09:37:03.735Z,97.00
2019-02-11T09:39:33.293Z,96.80
2019-02-11T09:42:03.289Z,97.10
2019-02-11T09:44:32.838Z,97.00
2019-02-11T09:47:02.461Z,96.80
2019-02-11T09:49:32.423Z,96.80
2019-02-11T09:52:02.040Z,96.60
2019-02-11T09:54:31.977Z,96.70
2019-02-11T09:57:02.145Z,96.30
2019-02-11T09:59:31.629Z,96.40
2019-02-11T10:02:01.310Z,96.40
2019-02-11T10:04:30.889Z,96.40
2019-02-11T10:07:00.533Z,96.40
2019-02-11T10:09:30.168Z,96.40
2019-02-11T10:11:59.829Z,96.40
2019-02-11T10:14:29.426Z,96.60
2019-02-11T10:16:59.003Z,96.40
2019-02-11T10:19:28.672Z,96.70
2019-02-11T10:21:58.189Z,96.60
2019-02-11T10:24:27.817Z,96.50
2019-02-11T10:26:57.392Z,96.50
2019-02-11T10:29:27.024Z,96.30
2019-02-11T10:31:56.609Z,96.30
2019-02-11T10:34:26.388Z,96.10
2019-02-11T10:36:55.932Z,96.10
2019-02-11T10:39:26.109Z,95.90
2019-02-11T10:41:55.795Z,95.90
2019-02-11T10:44:25.608Z,96.00
2019-02-11T10:46:55.107Z,96.10
2019-02-11T10:49:24.742Z,96.20
2019-02-11T10:51:54.377Z,96.10
2019-02-11T10:54:24.039Z,96.00
2019-02-11T10:56:53.787Z,95.80
2019-02-11T10:59:23.464Z,95.80
2019-02-11T11:01:54.009Z,96.00
2019-02-11T11:04:23.678Z,95.90
2019-02-11T11:06:53.251Z,96.00
2019-02-11T11:09:23.065Z,95.80
2019-02-11T11:11:54.647Z,95.40
2019-02-11T11:14:24.319Z,95.40
2019-02-11T11:16:54.272Z,95.10
2019-02-11T11:19:23.912Z,95.50
2019-02-11T11:21:53.494Z,95.30
2019-02-11T11:24:23.124Z,95.20
2019-02-11T11:26:52.642Z,95.50
2019-02-11T11:29:22.297Z,95.50
2019-02-11T11:31:51.889Z,95.40
2019-02-11T11:34:21.704Z,95.10
2019-02-11T11:36:52.174Z,95.00
2019-02-11T11:39:26.912Z,95.20
2019-02-11T11:41:56.402Z,95.00
2019-02-11T11:44:26.050Z,95.20
2019-02-11T11:46:55.700Z,95.20
2019-02-11T11:49:25.599Z,95.30
2019-02-11T11:51:55.115Z,95.10
2019-02-11T11:54:25.395Z,95.10
2019-02-11T11:56:54.879Z,94.80
2019-02-11T11:59:24.555Z,95.20
2019-02-11T12:01:54.122Z,95.30
2019-02-11T12:04:23.969Z,95.40
2019-02-11T12:06:53.929Z,95.50
2019-02-11T12:09:23.598Z,95.40
2019-02-11T12:11:53.211Z,95.70
2019-02-11T12:14:23.121Z,95.50
2019-02-11T12:16:57.762Z,95.90
2019-02-11T12:19:26.416Z,95.80
2019-02-11T12:21:56.515Z,95.60
2019-02-11T12:24:27.008Z,95.50
2019-02-11T12:26:56.543Z,95.70
2019-02-11T12:29:26.259Z,96.00
2019-02-11T12:31:55.772Z,95.90
2019-02-11T12:34:25.403Z,95.80
2019-02-11T12:36:55.367Z,95.50
2019-02-11T12:39:25.256Z,95.70
2019-02-11T12:41:54.842Z,95.40
2019-02-11T12:44:24.764Z,95.50
2019-02-11T12:46:54.459Z,95.50
2019-02-11T12:49:24.443Z,95.20
2019-02-11T12:51:54.014Z,95.50
2019-02-11T12:54:23.624Z,95.50
2019-02-11T12:56:53.338Z,95.40
2019-02-11T12:59:22.969Z,95.40
2019-02-11T13:01:52.674Z,95.50
2019-02-11T13:04:22.264Z,95.60
2019-02-11T13:06:51.929Z,95.60
2019-02-11T13:09:21.434Z,95.50
2019-02-11T13:11:51.115Z,95.60
2019-02-11T13:14:20.648Z,95.60
2019-02-11T13:16:50.350Z,95.60
2019-02-11T13:19:20.009Z,95.70
2019-02-11T13:21:49.619Z,95.80
2019-02-11T13:24:19.504Z,95.80
2019-02-11T13:26:49.148Z,95.80
2019-02-11T13:29:18.689Z,95.90
2019-02-11T13:31:48.244Z,95.60
2019-02-11T13:34:18.624Z,95.70
2019-02-11T13:36:48.278Z,95.70
2019-02-11T13:39:18.128Z,95.90
2019-02-11T13:41:47.952Z,95.90
2019-02-11T13:44:17.611Z,95.80
2019-02-11T13:46:47.096Z,95.50
2019-02-11T13:49:17.538Z,95.70
2019-02-11T13:51:47.361Z,95.60
2019-02-11T13:54:17.085Z,95.30
2019-02-11T13:56:46.816Z,95.30
2019-02-11T13:59:16.824Z,95.00
2019-02-11T14:01:46.696Z,95.00
2019-02-11T14:04:16.677Z,94.90
2019-02-11T14:06:46.310Z,94.60
2019-02-11T14:12:05.480Z,94.20
2019-02-11T14:14:35.207Z,94.30
2019-02-11T14:17:05.206Z,94.10
2019-02-11T14:19:42.011Z,94.10
2019-02-11T14:22:12.185Z,94.10
2019-02-11T14:24:42.802Z,94.00
2019-02-11T14:27:12.335Z,93.40
2019-02-11T14:29:42.085Z,93.40
2019-02-11T14:32:11.674Z,93.30
2019-02-11T14:34:42.308Z,93.10
2019-02-11T14:37:11.875Z,92.90
2019-02-11T14:39:42.295Z,92.90
2019-02-11T14:42:14.886Z,93.00
2019-02-11T14:44:43.781Z,93.00
2019-02-11T14:47:13.353Z,92.70
2019-02-11T14:49:42.964Z,92.80
2019-02-11T14:52:12.670Z,93.10
2019-02-11T14:54:42.256Z,93.00
2019-02-11T14:57:12.014Z,93.00
2019-02-11T14:59:41.568Z,92.90
2019-02-11T15:02:11.261Z,92.80
2019-02-11T15:04:40.799Z,93.10
2019-02-11T15:07:10.555Z,93.00
2019-02-11T15:09:41.212Z,93.10
2019-02-11T15:12:10.887Z,93.20
2019-02-11T15:14:40.433Z,92.70
2019-02-11T15:17:10.148Z,92.90
2019-02-11T15:19:39.675Z,92.80
2019-02-11T15:22:09.647Z,92.60
2019-02-11T15:24:39.190Z,92.80
2019-02-11T15:27:17.097Z,93.10
2019-02-11T15:29:41.808Z,93.00
2019-02-11T15:32:12.505Z,93.20
2019-02-11T15:34:42.082Z,92.90
2019-02-11T15:37:11.661Z,93.10
2019-02-11T15:39:41.529Z,92.70
2019-02-11T15:42:11.173Z,92.90
2019-02-11T15:44:40.794Z,92.80
2019-02-11T15:47:10.379Z,92.40
2019-02-11T15:49:40.028Z,92.10
2019-02-11T15:52:09.604Z,92.00
2019-02-11T15:54:39.320Z,92.00
2019-02-11T15:57:08.957Z,91.90
2019-02-11T15:59:38.929Z,91.80
2019-02-11T16:02:08.689Z,91.80
2019-02-11T16:04:39.327Z,91.50
2019-02-11T16:07:09.295Z,91.30
2019-02-11T16:09:38.921Z,91.40
2019-02-11T16:12:08.700Z,91.50
2019-02-11T16:14:38.429Z,91.50
2019-02-11T16:17:08.233Z,91.40
2019-02-11T16:19:37.874Z,91.40
2019-02-11T16:22:07.507Z,91.60
2019-02-11T16:24:37.464Z,91.50
2019-02-11T16:27:07.063Z,91.50
2019-02-11T16:29:36.732Z,91.60
2019-02-11T16:32:06.347Z,91.30
2019-02-11T16:34:35.938Z,91.40
2019-02-11T16:37:05.618Z,91.70
2019-02-11T16:39:35.274Z,91.80
2019-02-11T16:42:04.880Z,91.60
2019-02-11T16:44:34.449Z,91.50
2019-02-11T16:47:05.189Z,91.80
2019-02-11T16:49:34.824Z,91.60
2019-02-11T16:52:04.576Z,91.40
2019-02-11T16:54:34.455Z,91.40
2019-02-11T16:57:04.214Z,91.00
2019-02-11T16:59:33.738Z,91.30
2019-02-11T17:02:05.415Z,91.40
2019-02-11T17:04:35.047Z,91.70
2019-02-11T17:07:04.723Z,91.60
2019-02-11T17:09:34.777Z,91.60
2019-02-11T17:12:04.443Z,91.80
2019-02-11T17:14:34.172Z,91.80
2019-02-11T17:17:03.837Z,91.70
2019-02-11T17:19:33.587Z,91.80
2019-02-11T17:22:03.171Z,91.50
2019-02-11T17:24:32.836Z,91.50
2019-02-11T17:27:02.369Z,91.60
2019-02-11T17:29:32.128Z,91.70
2019-02-11T17:32:01.898Z,91.60
2019-02-11T17:34:33.615Z,91.80
2019-02-11T17:37:03.236Z,91.60
2019-02-11T17:39:32.919Z,91.60
2019-02-11T17:42:02.582Z,91.50
2019-02-11T17:44:33.241Z,91.60
2019-02-11T17:47:02.923Z,91.30
2019-02-11T17:49:32.605Z,90.90
2019-02-11T17:52:03.448Z,91.00
2019-02-11T17:54:33.191Z,91.00
2019-02-11T17:57:02.720Z,91.00
2019-02-11T17:59:32.375Z,90.90
2019-02-11T18:02:01.919Z,91.10
2019-02-11T18:04:31.587Z,90.80
2019-02-11T18:07:02.189Z,90.80
2019-02-11T18:09:31.881Z,91.00
2019-02-11T18:12:01.447Z,91.10
2019-02-11T18:14:31.121Z,91.60
2019-02-11T18:17:00.649Z,91.60
2019-02-11T18:19:31.346Z,91.20
2019-02-11T18:22:00.956Z,91.30
2019-02-11T18:24:30.736Z,91.40
2019-02-11T18:27:00.304Z,91.60
2019-02-11T18:29:30.015Z,91.40
2019-02-11T18:31:59.607Z,91.40
2019-02-11T18:34:30.368Z,91.30
2019-02-11T18:36:59.985Z,91.40
2019-02-11T18:39:29.820Z,91.50
2019-02-11T18:41:59.616Z,91.70
2019-02-11T18:44:29.320Z,91.60
2019-02-11T18:46:59.020Z,91.80
2019-02-11T18:49:34.335Z,91.70
2019-02-11T18:52:00.528Z,91.80
2019-02-11T18:54:30.306Z,91.90
2019-02-11T18:57:00.029Z,92.00
2019-02-11T18:59:29.651Z,91.90
2019-02-11T19:01:59.286Z,92.00
2019-02-11T19:04:28.899Z,92.00
2019-02-11T19:06:59.110Z,91.90
2019-02-11T19:09:28.835Z,92.00
2019-02-11T19:11:58.397Z,92.30
2019-02-11T19:14:29.035Z,92.20
2019-02-11T19:16:58.664Z,92.40
2019-02-11T19:19:28.403Z,92.30
2019-02-11T19:21:59.012Z,92.60
2019-02-11T19:24:28.544Z,92.60
2019-02-11T19:26:59.283Z,92.80
2019-02-11T19:29:28.899Z,92.70
2019-02-11T19:31:58.586Z,93.00
2019-02-11T19:34:29.115Z,93.10
2019-02-11T19:36:59.830Z,93.10
2019-02-11T19:39:31.427Z,93.10
2019-02-11T19:42:01.220Z,93.20
2019-02-11T19:44:30.770Z,93.20
2019-02-11T19:47:00.405Z,93.20
2019-02-11T19:49:29.949Z,93.40
2019-02-11T19:51:59.624Z,93.50
2019-02-11T19:54:29.288Z,93.60
2019-02-11T19:56:59.035Z,93.70
2019-02-11T19:59:28.733Z,93.80
2019-02-11T20:02:00.480Z,93.80
2019-02-11T20:04:40.021Z,94.00
2019-02-11T20:07:09.775Z,93.90
2019-02-11T20:09:41.362Z,93.90
2019-02-11T20:12:11.115Z,93.90
2019-02-11T20:14:40.756Z,93.90
2019-02-11T20:17:10.534Z,93.90
2019-02-11T20:19:41.157Z,93.90
2019-02-11T20:22:11.934Z,93.90
2019-02-11T20:24:42.591Z,93.90
2019-02-11T20:27:12.274Z,94.00
2019-02-11T20:32:43.644Z,94.00
2019-02-11T20:37:52.344Z,94.10
2019-02-11T20:40:23.505Z,94.00
2019-02-11T20:42:53.056Z,94.10
2019-02-11T20:45:25.628Z,94.00
2019-02-11T20:47:55.123Z,94.10
2019-02-11T20:50:24.916Z,93.90
2019-02-11T20:52:54.512Z,93.90
2019-02-11T20:55:24.295Z,93.70
2019-02-11T20:57:55.184Z,93.70
2019-02-11T21:00:25.723Z,93.60
2019-02-11T21:02:55.367Z,93.60
2019-02-11T21:05:24.914Z,93.50
2019-02-11T21:07:54.587Z,93.40
2019-02-11T21:10:24.260Z,93.50
2019-02-11T21:12:53.819Z,93.10
2019-02-11T21:15:23.341Z,93.20
2019-02-11T21:17:52.955Z,92.90
2019-02-11T21:20:25.666Z,93.10
2019-02-11T21:22:55.319Z,93.10
2019-02-11T21:25:24.834Z,92.50
2019-02-11T21:27:54.483Z,92.80
2019-02-11T21:30:24.007Z,92.70
2019-02-11T21:32:53.606Z,93.20
2019-02-11T21:35:23.561Z,94.00
2019-02-11T21:37:53.375Z,94.60
2019-02-11T21:40:23.274Z,95.00
2019-02-11T21:42:52.848Z,95.20
2019-02-11T22:01:01.908Z,96.40
2019-02-11T22:03:24.705Z,96.70
2019-02-11T22:05:54.399Z,96.70
2019-02-11T22:08:24.108Z,97.00
2019-02-11T22:10:53.903Z,97.20
2019-02-11T22:13:26.617Z,97.30
2019-02-11T22:15:56.339Z,97.30
2019-02-11T22:18:25.943Z,97.40
2019-02-11T22:20:55.681Z,97.50
2019-02-11T22:23:25.290Z,97.30
2019-02-11T22:25:55.032Z,97.10
2019-02-11T22:28:29.369Z,97.00
2019-02-11T22:30:59.142Z,96.90
2019-02-11T22:33:28.742Z,96.70
2019-02-11T22:35:59.303Z,96.80
2019-02-11T22:38:30.052Z,97.20
2019-02-11T22:40:59.739Z,96.70
2019-02-11T22:43:30.428Z,96.80
2019-02-11T22:46:00.041Z,96.90
2019-02-11T22:48:29.814Z,96.80
2019-02-11T22:50:59.426Z,96.80
2019-02-11T22:53:29.212Z,97.10
2019-02-11T22:55:59.799Z,96.90
2019-02-11T22:58:31.710Z,97.20
2019-02-11T23:01:03.984Z,97.20
2019-02-11T23:03:34.697Z,97.10
2019-02-11T23:06:05.066Z,97.10
2019-02-11T23:08:34.772Z,96.90
2019-02-11T23:11:04.359Z,96.90
2019-02-11T23:13:47.092Z,96.90
2019-02-11T23:16:16.742Z,96.90
2019-02-11T23:18:49.536Z,96.80
2019-02-11T23:21:19.132Z,96.90
2019-02-11T23:23:49.046Z,97.00
2019-02-11T23:26:18.699Z,97.00
2019-02-11T23:28:49.774Z,96.90
2019-02-11T23:31:19.354Z,96.90
2019-02-11T23:33:48.943Z,96.80
2019-02-11T23:36:18.709Z,96.80
2019-02-11T23:38:48.296Z,96.80
2019-02-11T23:41:21.388Z,96.80
2019-02-11T23:43:51.062Z,96.70
2019-02-11T23:46:20.823Z,96.80
2019-02-11T23:48:50.420Z,96.70
2019-02-11T23:51:20.199Z,96.70
2019-02-11T23:53:52.973Z,96.60
2019-02-11T23:56:23.887Z,96.60
2019-02-11T23:58:53.462Z,96.50
